createdAt,value
2023-03-12T00:01:50.625Z,73.60
2023-03-12T00:05:05.603Z,73.16
2023-03-12T00:08:14.239Z,72.69
2023-03-12T00:11:29.625Z,72.66
2023-03-12T00:14:32.411Z,72.24
2023-03-12T00:17:47.617Z,72.94
2023-03-12T00:20:55.932Z,72.69
2023-03-12T00:24:10.602Z,72.61
2023-03-12T00:27:26.604Z,72.73
2023-03-12T00:30:29.197Z,72.15
2023-03-12T00:33:43.600Z,72.26
2023-03-12T00:36:51.579Z,72.00
2023-03-12T00:40:07.618Z,72.23
2023-03-12T00:43:16.161Z,72.13
2023-03-12T00:46:25.644Z,71.79
2023-03-12T00:49:34.282Z,72.18
2023-03-12T00:52:49.621Z,72.28
2023-03-12T00:55:51.602Z,72.37
2023-03-12T00:59:06.585Z,71.74
2023-03-12T01:02:21.582Z,72.06
2023-03-12T01:05:30.584Z,70.81
2023-03-12T01:08:39.561Z,70.17
2023-03-12T01:11:48.614Z,69.82
2023-03-12T01:15:03.621Z,69.74
2023-03-12T01:18:05.687Z,68.90
2023-03-12T01:21:27.608Z,68.19
2023-03-12T01:24:36.202Z,67.36
2023-03-12T01:27:44.590Z,67.19
2023-03-12T01:31:00.628Z,66.39
2023-03-12T01:34:02.538Z,66.76
2023-03-12T01:37:17.620Z,66.16
2023-03-12T01:40:23.594Z,66.38
2023-03-12T01:43:43.609Z,65.99
2023-03-12T01:46:52.307Z,65.69
2023-03-12T01:50:08.605Z,65.73
2023-03-12T01:53:12.519Z,65.19
2023-03-12T01:56:28.588Z,65.11
2023-03-12T01:59:58.653Z,65.12
2023-03-12T02:03:09.463Z,65.95
2023-03-12T02:06:22.583Z,66.01
2023-03-12T02:09:33.756Z,66.04
2023-03-12T02:12:48.592Z,66.38
2023-03-12T02:15:50.526Z,66.54
2023-03-12T02:19:08.602Z,66.60
2023-03-12T02:22:17.027Z,66.77
2023-03-12T02:25:41.567Z,67.39
2023-03-12T02:28:50.614Z,67.10
2023-03-12T02:32:08.636Z,66.94
2023-03-12T02:35:18.591Z,66.65
2023-03-12T02:38:43.553Z,66.97
2023-03-12T02:42:03.587Z,67.46
2023-03-12T02:45:18.602Z,67.89
2023-03-12T02:48:27.203Z,69.09
2023-03-12T02:51:41.604Z,69.79
2023-03-12T02:54:50.251Z,70.01
2023-03-12T02:58:04.568Z,70.34
2023-03-12T03:01:06.445Z,70.43
2023-03-12T03:04:21.692Z,70.86
2023-03-12T03:07:30.190Z,71.30
2023-03-12T03:10:39.575Z,71.15
2023-03-12T03:13:48.375Z,71.84
2023-03-12T03:16:56.587Z,71.90
2023-03-12T03:20:18.557Z,72.43
2023-03-12T03:23:33.598Z,72.35
2023-03-12T03:26:42.441Z,72.95
2023-03-12T03:29:57.593Z,73.39
2023-03-12T03:33:12.577Z,73.59
2023-03-12T03:36:21.562Z,74.02
2023-03-12T03:39:36.574Z,74.19
2023-03-12T03:42:45.290Z,74.85
2023-03-12T03:45:53.616Z,74.64
2023-03-12T03:49:09.610Z,74.83
2023-03-12T03:52:24.613Z,75.00
2023-03-12T03:55:32.593Z,75.26
2023-03-12T03:58:41.252Z,75.34
2023-03-12T04:01:49.606Z,75.13
2023-03-12T04:05:04.555Z,76.10
2023-03-12T04:08:20.563Z,76.83
2023-03-12T04:11:23.199Z,77.34
2023-03-12T04:14:37.563Z,77.73
2023-03-12T04:17:59.677Z,78.54
2023-03-12T04:21:02.770Z,78.87
2023-03-12T04:24:22.586Z,79.78
2023-03-12T04:27:37.590Z,80.27
2023-03-12T04:30:46.564Z,80.67
2023-03-12T04:33:55.173Z,80.44
2023-03-12T04:37:03.558Z,80.30
2023-03-12T04:40:19.575Z,79.98
2023-03-12T04:43:28.565Z,79.52
2023-03-12T04:46:43.623Z,79.53
2023-03-12T04:50:04.634Z,79.23
2023-03-12T04:53:19.609Z,78.72
2023-03-12T04:56:28.185Z,78.48
2023-03-12T04:59:36.578Z,78.91
2023-03-12T05:02:48.587Z,79.68
2023-03-12T05:06:03.580Z,80.01
2023-03-12T05:09:18.571Z,80.23
2023-03-12T05:12:20.693Z,80.92
2023-03-12T05:15:35.574Z,81.12
2023-03-12T05:18:51.564Z,81.20
2023-03-12T05:21:53.599Z,81.32
2023-03-12T05:25:15.589Z,81.84
2023-03-12T05:28:24.544Z,81.60
2023-03-12T05:31:33.403Z,82.20
2023-03-12T05:34:48.555Z,82.38
2023-03-12T05:37:57.192Z,83.33
2023-03-12T05:41:12.558Z,83.50
2023-03-12T05:44:27.553Z,82.54
2023-03-12T05:47:36.219Z,82.68
2023-03-12T05:50:44.575Z,82.43
2023-03-12T05:53:53.519Z,81.86
2023-03-12T05:57:08.594Z,81.92
2023-03-12T06:00:20.542Z,81.80
2023-03-12T06:03:29.304Z,82.27
2023-03-12T06:06:44.551Z,81.65
2023-03-12T06:09:46.492Z,81.55
2023-03-12T06:13:01.544Z,80.56
2023-03-12T06:16:29.101Z,80.16
2023-03-12T06:19:43.577Z,79.64
2023-03-12T06:22:51.849Z,79.22
2023-03-12T06:26:06.596Z,79.31
2023-03-12T06:29:14.542Z,78.81
2023-03-12T06:32:23.219Z,78.24
2023-03-12T06:35:31.592Z,77.21
2023-03-12T06:38:47.577Z,76.28
2023-03-12T06:41:56.245Z,74.88
2023-03-12T06:45:04.529Z,73.70
2023-03-12T06:48:13.160Z,72.88
2023-03-12T06:51:22.570Z,71.82
2023-03-12T06:54:31.540Z,71.50
2023-03-12T06:57:39.556Z,71.27
2023-03-12T07:00:48.145Z,70.58
2023-03-12T07:03:56.555Z,71.13
2023-03-12T07:07:05.267Z,71.49
2023-03-12T07:10:14.517Z,70.36
2023-03-12T07:13:23.497Z,69.53
2023-03-12T07:16:31.674Z,70.00
2023-03-12T07:19:48.776Z,69.26
2023-03-12T07:22:58.756Z,69.14
2023-03-12T07:26:13.563Z,68.42
2023-03-12T07:29:35.561Z,68.32
2023-03-12T07:32:37.441Z,66.41
2023-03-12T07:35:53.695Z,66.57
2023-03-12T07:38:56.096Z,65.53
2023-03-12T07:42:10.590Z,64.59
2023-03-12T07:45:20.652Z,64.11
2023-03-12T07:48:35.540Z,63.46
2023-03-12T07:51:44.668Z,62.42
2023-03-12T07:54:53.691Z,61.38
2023-03-12T07:58:02.589Z,60.18
2023-03-12T08:01:17.635Z,58.41
2023-03-12T08:04:21.306Z,58.56
2023-03-12T08:07:37.558Z,55.89
2023-03-12T08:10:46.705Z,55.92
2023-03-12T08:14:01.552Z,55.18
2023-03-12T08:17:16.546Z,53.52
2023-03-12T08:20:18.732Z,53.75
2023-03-12T08:23:40.573Z,53.36
2023-03-12T08:26:49.205Z,51.32
2023-03-12T08:29:57.528Z,53.35
2023-03-12T08:33:12.565Z,52.46
2023-03-12T08:36:14.548Z,50.89
2023-03-12T08:39:29.578Z,51.00
2023-03-12T08:42:31.560Z,48.81
2023-03-12T08:45:46.738Z,49.30
2023-03-12T08:48:48.850Z,49.27
2023-03-12T08:52:03.556Z,47.21
2023-03-12T08:55:12.305Z,46.13
2023-03-12T08:58:20.590Z,46.74
2023-03-12T09:01:35.556Z,48.37
2023-03-12T09:04:48.155Z,47.11
2023-03-12T09:07:56.545Z,45.73
2023-03-12T09:11:05.405Z,45.95
2023-03-12T09:14:57.573Z,44.24
2023-03-12T09:17:43.200Z,44.46
2023-03-12T09:20:57.535Z,44.67
2023-03-12T09:24:12.800Z,43.97
2023-03-12T09:27:21.555Z,45.15
2023-03-12T09:30:37.630Z,44.91
2023-03-12T09:33:46.308Z,45.48
2023-03-12T09:36:54.556Z,44.68
2023-03-12T09:40:10.537Z,44.31
2023-03-12T09:43:28.328Z,44.96
2023-03-12T09:46:56.552Z,44.28
2023-03-12T09:50:14.514Z,44.00
2023-03-12T09:53:39.519Z,44.34
2023-03-12T09:56:51.141Z,42.43
2023-03-12T09:59:59.567Z,42.52
2023-03-12T10:03:21.114Z,42.61
2023-03-12T10:07:18.559Z,42.72
2023-03-12T10:10:36.872Z,42.08
2023-03-12T10:14:23.823Z,41.47
2023-03-12T10:17:58.625Z,43.04
2023-03-12T10:21:14.151Z,41.11
2023-03-12T10:24:35.569Z,39.12
2023-03-12T10:27:37.476Z,39.34
2023-03-12T10:31:00.613Z,40.79
2023-03-12T10:34:38.060Z,40.15
2023-03-12T10:38:02.550Z,41.83
2023-03-12T10:41:21.634Z,41.98
2023-03-12T10:44:37.535Z,40.80
2023-03-12T10:48:00.535Z,41.65
2023-03-12T10:51:13.233Z,40.07
2023-03-12T10:54:35.527Z,40.34
2023-03-12T10:57:50.532Z,38.61
2023-03-12T11:01:01.827Z,39.04
2023-03-12T11:04:30.173Z,40.42
2023-03-12T11:07:44.395Z,40.59
2023-03-12T11:10:54.570Z,40.00
2023-03-12T11:14:30.548Z,37.93
2023-03-12T11:17:32.408Z,36.27
2023-03-12T11:20:47.530Z,37.56
2023-03-12T11:24:21.581Z,35.65
2023-03-12T11:27:44.566Z,35.88
2023-03-12T11:31:03.579Z,36.28
2023-03-12T11:34:14.524Z,36.00
2023-03-12T11:37:44.572Z,36.06
2023-03-12T11:41:12.574Z,34.49
2023-03-12T11:45:11.555Z,36.07
2023-03-12T11:48:39.588Z,34.59
2023-03-12T11:52:11.515Z,35.53
2023-03-12T11:55:42.200Z,34.55
2023-03-12T11:59:07.700Z,30.46
2023-03-12T12:02:47.574Z,29.56
2023-03-12T12:06:01.731Z,28.95
2023-03-12T12:09:19.538Z,30.83
2023-03-12T12:13:05.524Z,29.57
2023-03-12T12:16:39.845Z,28.18
2023-03-12T12:20:03.622Z,27.97
2023-03-12T12:23:36.809Z,28.02
2023-03-12T12:27:01.563Z,27.43
2023-03-12T12:30:29.593Z,28.28
2023-03-12T12:34:10.853Z,27.97
2023-03-12T12:37:36.556Z,27.45
2023-03-12T12:41:00.556Z,28.72
2023-03-12T12:44:13.755Z,28.83
2023-03-12T12:47:45.596Z,29.15
2023-03-12T12:51:02.553Z,27.25
2023-03-12T12:54:35.560Z,26.78
2023-03-12T12:58:16.532Z,26.59
2023-03-12T13:01:32.829Z,26.79
2023-03-12T13:04:38.763Z,27.23
2023-03-12T13:07:53.564Z,27.96
2023-03-12T13:11:16.644Z,27.21
2023-03-12T13:14:46.821Z,27.38
2023-03-12T13:18:01.538Z,27.04
2023-03-12T13:21:41.796Z,27.55
2023-03-12T13:25:30.849Z,27.25
2023-03-12T13:29:11.738Z,27.91
2023-03-12T13:32:56.869Z,27.10
2023-03-12T13:36:23.596Z,26.76
2023-03-12T13:39:35.505Z,25.47
2023-03-12T13:42:50.924Z,27.29
2023-03-12T13:50:07.835Z,27.08
2023-03-12T13:53:20.580Z,25.57
2023-03-12T13:56:41.432Z,26.90
2023-03-12T13:59:56.791Z,26.75
2023-03-12T14:03:29.920Z,26.44
2023-03-12T14:07:06.250Z,26.33
2023-03-12T14:10:23.576Z,28.05
2023-03-12T14:14:15.857Z,28.00
2023-03-12T14:17:33.552Z,26.89
2023-03-12T14:20:53.508Z,27.16
2023-03-12T14:24:34.145Z,28.88
2023-03-12T14:27:36.484Z,28.12
2023-03-12T14:31:20.034Z,27.37
2023-03-12T14:34:38.659Z,27.04
2023-03-12T14:37:53.555Z,26.40
2023-03-12T14:41:14.928Z,26.37
2023-03-12T14:44:26.629Z,25.62
2023-03-12T14:47:48.566Z,25.74
2023-03-12T14:50:59.248Z,26.08
2023-03-12T14:54:24.579Z,25.77
2023-03-12T14:57:40.573Z,25.52
2023-03-12T15:01:08.543Z,25.53
2023-03-12T15:04:27.985Z,26.89
2023-03-12T15:07:37.886Z,25.92
2023-03-12T15:11:04.557Z,26.21
2023-03-12T15:14:15.899Z,25.86
2023-03-12T15:17:36.002Z,26.81
2023-03-12T15:20:40.498Z,26.66
2023-03-12T15:23:56.894Z,28.88
2023-03-12T15:27:33.936Z,29.96
2023-03-12T15:30:52.113Z,30.62
2023-03-12T15:34:06.371Z,31.33
2023-03-12T15:37:32.651Z,29.98
2023-03-12T15:40:42.249Z,30.48
2023-03-12T15:43:55.668Z,30.47
2023-03-12T15:47:20.108Z,30.52
2023-03-12T15:50:50.910Z,31.11
2023-03-12T15:54:01.536Z,31.52
2023-03-12T15:57:59.544Z,31.87
2023-03-12T16:01:14.188Z,32.29
2023-03-12T16:04:23.698Z,31.74
2023-03-12T16:07:38.758Z,31.92
2023-03-12T16:10:50.922Z,31.31
2023-03-12T16:14:06.774Z,31.31
2023-03-12T16:17:29.556Z,31.68
2023-03-12T16:20:38.945Z,31.71
2023-03-12T16:23:53.548Z,31.51
2023-03-12T16:27:10.133Z,32.00
2023-03-12T16:30:26.324Z,32.21
2023-03-12T16:33:42.520Z,32.40
2023-03-12T16:36:52.017Z,32.12
2023-03-12T16:40:09.959Z,32.21
2023-03-12T16:43:30.543Z,32.51
2023-03-12T16:46:47.903Z,33.15
2023-03-12T16:49:57.043Z,33.33
2023-03-12T16:53:12.799Z,33.49
2023-03-12T16:56:30.887Z,33.73
2023-03-12T16:59:39.546Z,34.46
2023-03-12T17:02:56.853Z,36.04
2023-03-12T17:06:07.094Z,35.08
2023-03-12T17:09:21.958Z,35.87
2023-03-12T17:12:42.672Z,36.65
2023-03-12T17:15:58.950Z,38.85
2023-03-12T17:19:08.727Z,38.36
2023-03-12T17:22:17.896Z,39.50
2023-03-12T17:25:36.637Z,39.72
2023-03-12T17:28:52.936Z,40.32
2023-03-12T17:32:01.944Z,39.66
2023-03-12T17:35:17.966Z,41.31
2023-03-12T17:38:20.626Z,40.65
2023-03-12T17:41:38.567Z,42.11
2023-03-12T17:44:54.949Z,41.92
2023-03-12T17:48:11.024Z,41.82
2023-03-12T17:51:26.902Z,43.45
2023-03-12T17:54:36.012Z,43.24
2023-03-12T17:57:44.851Z,41.78
2023-03-12T18:01:02.038Z,42.64
2023-03-12T18:04:10.969Z,42.76
2023-03-12T18:07:26.031Z,42.34
2023-03-12T18:10:35.954Z,42.83
2023-03-12T18:13:53.977Z,43.17
2023-03-12T18:16:56.750Z,44.44
2023-03-12T18:20:14.040Z,44.15
2023-03-12T18:23:29.986Z,44.60
2023-03-12T18:26:38.957Z,44.43
2023-03-12T18:29:48.906Z,44.35
2023-03-12T18:33:04.028Z,45.72
2023-03-12T18:36:07.324Z,45.97
2023-03-12T18:39:23.029Z,47.12
2023-03-12T18:42:27.382Z,46.69
2023-03-12T18:45:48.516Z,46.78
2023-03-12T18:48:57.517Z,47.76
2023-03-12T18:52:13.556Z,49.40
2023-03-12T18:55:22.992Z,46.96
2023-03-12T18:58:39.946Z,49.43
2023-03-12T19:01:50.120Z,49.92
2023-03-12T19:05:06.144Z,50.60
2023-03-12T19:08:23.134Z,50.79
2023-03-12T19:11:33.019Z,50.98
2023-03-12T19:14:48.527Z,52.65
2023-03-12T19:17:52.029Z,52.58
2023-03-12T19:21:06.949Z,52.87
2023-03-12T19:24:22.541Z,53.58
2023-03-12T19:27:31.962Z,54.08
2023-03-12T19:30:48.022Z,54.28
2023-03-12T19:33:58.513Z,53.17
2023-03-12T19:37:13.960Z,52.55
2023-03-12T19:40:23.605Z,53.55
2023-03-12T19:43:32.538Z,53.24
2023-03-12T19:46:48.934Z,53.79
2023-03-12T19:50:03.999Z,53.10
2023-03-12T19:53:07.088Z,53.11
2023-03-12T19:56:23.568Z,53.05
2023-03-12T19:59:33.054Z,55.41
2023-03-12T20:02:47.661Z,56.42
2023-03-12T20:05:50.805Z,58.06
2023-03-12T20:09:06.985Z,60.23
2023-03-12T20:12:18.060Z,58.08
2023-03-12T20:15:27.101Z,59.17
2023-03-12T20:18:42.985Z,59.32
2023-03-12T20:21:45.663Z,59.64
2023-03-12T20:25:07.904Z,58.33
2023-03-12T20:28:17.950Z,59.77
2023-03-12T20:31:27.001Z,60.18
2023-03-12T20:34:37.038Z,59.14
2023-03-12T20:37:46.313Z,58.55
2023-03-12T20:41:02.503Z,57.69
2023-03-12T20:44:05.137Z,59.14
2023-03-12T20:47:22.963Z,58.04
2023-03-12T20:50:39.998Z,58.20
2023-03-12T20:53:42.635Z,57.18
2023-03-12T20:56:57.513Z,57.40
2023-03-12T21:00:08.985Z,59.23
2023-03-12T21:03:23.679Z,59.40
2023-03-12T21:06:26.545Z,58.35
2023-03-12T21:09:43.035Z,59.22
2023-03-12T21:12:58.709Z,58.46
2023-03-12T21:16:09.252Z,59.64
2023-03-12T21:19:18.169Z,58.86
2023-03-12T21:22:36.965Z,59.20
2023-03-12T21:25:46.061Z,59.78
2023-03-12T21:29:00.930Z,60.87
2023-03-12T21:32:03.177Z,60.94
2023-03-12T21:35:17.585Z,62.24
2023-03-12T21:38:26.970Z,60.92
2023-03-12T21:41:36.503Z,60.95
2023-03-12T21:44:44.539Z,59.43
2023-03-12T21:47:59.838Z,60.13
2023-03-12T21:51:19.607Z,58.38
2023-03-12T21:54:39.517Z,59.24
2023-03-12T21:57:41.650Z,58.05
2023-03-12T22:00:57.558Z,59.16
2023-03-12T22:04:06.525Z,58.13
2023-03-12T22:07:21.525Z,58.88
2023-03-12T22:10:30.353Z,58.29
2023-03-12T22:13:45.561Z,59.41
2023-03-12T22:16:47.471Z,60.97
2023-03-12T22:20:02.508Z,60.92
2023-03-12T22:23:11.496Z,60.98
2023-03-12T22:26:27.731Z,60.39
2023-03-12T22:29:42.486Z,61.55
2023-03-12T22:32:52.333Z,61.46
2023-03-12T22:36:11.601Z,60.42
2023-03-12T22:39:20.171Z,59.79
2023-03-12T22:42:34.525Z,59.97
2023-03-12T22:45:49.516Z,60.03
2023-03-12T22:49:00.208Z,59.34
2023-03-12T22:52:08.508Z,59.47
2023-03-12T22:55:30.492Z,60.41
2023-03-12T22:58:39.768Z,59.82
2023-03-12T23:01:48.590Z,59.41
2023-03-12T23:05:03.598Z,59.78
2023-03-12T23:08:12.521Z,60.57
2023-03-12T23:11:21.114Z,59.85
2023-03-12T23:14:29.492Z,58.95
2023-03-12T23:17:38.132Z,58.29
2023-03-12T23:20:46.510Z,58.12
2023-03-12T23:24:01.852Z,58.88
2023-03-12T23:27:10.507Z,59.07
2023-03-12T23:30:19.901Z,60.07
2023-03-12T23:33:35.548Z,59.68
2023-03-12T23:36:44.475Z,59.78
2023-03-12T23:39:55.041Z,59.62
2023-03-12T23:43:10.495Z,59.55
2023-03-12T23:46:26.506Z,59.29
2023-03-12T23:49:41.490Z,59.79
2023-03-12T23:52:50.516Z,60.21
2023-03-12T23:56:07.496Z,60.40
2023-03-12T23:59:17.522Z,60.00
